Prudhoe Bay, Alaska
Current Conditions -  °F | °C
As of 3:53 PM on Thursday 27 Nov 2014 (Local Time) from PASC Reporting Station
Scattered Clouds Scattered Clouds  
Wind Chill: -29°   Ceiling: Unl
Heat Index: -13°   Visibility: 10mi
Dew Point: -20°   Wind: 7mph
Humidity: 71%   Direction: 90°E
Pressure: 30.27"   Gusts: NA
Location:  70.28°N, 148.38°W
Report Text: PASC 280053Z 09006KT 10SM SCT180 M25/M29 A3027 RMK AO2 SLP252 T12501289
Loading
Personal Weather Stations






























Interactive Weather Map New forecast layout! Learn more

10-Day Weather Forecast

Advertisements
Track Severe Weather on mobile